Time;durP1;ratioP1;P1;durP2;ratioP2;P2;SDS_P1;SDS_P2;PMS_P1;PMS_P2;Temp;Humidity;BMP_temperature;BMP_pressure;BME280_temperature;BME280_humidity;BME280_pressure;Samples;Min_cycle;Max_cycle;Signal;HPM_P1;HPM_P2
2023/04/16 00:00:31;;;;;;;54.47;22.98;;;8.80;99.90;;;;;;5056206;28;20048;-66
2023/04/16 00:02:56;;;;;;;53.30;21.85;;;8.90;99.90;;;;;;5053922;28;20037;-65
2023/04/16 00:05:22;;;;;;;50.10;22.00;;;8.90;99.90;;;;;;5054217;28;20040;-66
2023/04/16 00:07:50;;;;;;;52.00;21.90;;;8.80;99.90;;;;;;5054506;28;20121;-66
2023/04/16 00:10:16;;;;;;;56.60;21.90;;;8.90;99.90;;;;;;5064894;28;20048;-66
2023/04/16 00:12:42;;;;;;;58.83;22.00;;;8.90;99.90;;;;;;5056495;28;20376;-66
2023/04/16 00:15:07;;;;;;;63.50;22.70;;;8.80;99.90;;;;;;5062253;28;20044;-66
2023/04/16 00:17:33;;;;;;;57.22;23.63;;;8.90;99.90;;;;;;5058962;28;20041;-66
2023/04/16 00:19:59;;;;;;;64.38;23.75;;;8.90;99.90;;;;;;5061667;28;20384;-65
2023/04/16 00:22:24;;;;;;;59.13;23.38;;;8.90;99.90;;;;;;5066332;28;20068;-66
2023/04/16 00:24:50;;;;;;;57.53;23.05;;;8.80;99.90;;;;;;5062672;28;20040;-65
2023/04/16 00:27:15;;;;;;;56.53;22.98;;;8.90;99.90;;;;;;5062638;28;20044;-66
2023/04/16 00:29:41;;;;;;;73.63;24.67;;;8.80;99.90;;;;;;5053997;28;20044;-65
2023/04/16 00:32:07;;;;;;;78.38;26.00;;;8.90;99.90;;;;;;5066615;28;20041;-66
2023/04/16 00:34:32;;;;;;;65.82;24.27;;;8.90;99.90;;;;;;5059407;28;20041;-66
2023/04/16 00:36:58;;;;;;;62.80;24.08;;;8.90;99.90;;;;;;5066883;28;20372;-66
2023/04/16 00:39:24;;;;;;;69.97;25.52;;;8.90;99.90;;;;;;5055333;28;20048;-66
2023/04/16 00:41:50;;;;;;;67.55;25.23;;;8.90;99.90;;;;;;5062846;28;20167;-66
2023/04/16 00:44:15;;;;;;;75.28;24.98;;;8.80;99.90;;;;;;5051790;28;20044;-66
2023/04/16 00:46:41;;;;;;;75.90;26.42;;;8.80;99.90;;;;;;5054004;28;20094;-66
2023/04/16 00:49:08;;;;;;;69.95;25.67;;;8.90;99.90;;;;;;5060697;28;20073;-65
2023/04/16 00:51:34;;;;;;;69.18;25.58;;;8.80;99.90;;;;;;5066063;28;20512;-66
2023/04/16 00:54:01;;;;;;;71.97;25.60;;;8.80;99.90;;;;;;5066200;28;20055;-66
2023/04/16 00:56:27;;;;;;;76.68;26.00;;;8.80;99.90;;;;;;5059673;28;20051;-65
2023/04/16 00:58:55;;;;;;;72.55;25.50;;;8.80;99.90;;;;;;5065719;28;20037;-65
2023/04/16 01:01:20;;;;;;;76.15;27.55;;;8.80;99.90;;;;;;5062240;28;20162;-65
2023/04/16 01:03:47;;;;;;;81.68;26.65;;;8.80;99.90;;;;;;5062772;28;20123;-65
2023/04/16 01:06:15;;;;;;;87.82;27.63;;;8.80;99.90;;;;;;5059120;28;20087;-65
2023/04/16 01:08:40;;;;;;;76.85;27.67;;;8.80;99.90;;;;;;5064640;28;20758;-65
2023/04/16 01:11:06;;;;;;;78.10;26.83;;;8.80;99.90;;;;;;5058359;28;20041;-65
2023/04/16 01:13:32;;;;;;;77.82;26.92;;;8.80;99.90;;;;;;5071224;28;20033;-65
2023/04/16 01:15:59;;;;;;;89.53;29.15;;;8.80;99.90;;;;;;5065827;28;20166;-65
2023/04/16 01:18:25;;;;;;;77.95;27.80;;;8.80;99.90;;;;;;5071747;28;20040;-65
2023/04/16 01:20:51;;;;;;;69.88;26.13;;;8.80;99.90;;;;;;5056849;28;20048;-65
2023/04/16 01:23:17;;;;;;;77.13;26.92;;;8.90;99.90;;;;;;5061399;28;20048;-65
2023/04/16 01:25:46;;;;;;;85.55;29.10;;;8.80;99.90;;;;;;5062136;28;20364;-65
2023/04/16 01:28:12;;;;;;;78.18;27.50;;;8.80;99.90;;;;;;5053563;28;20270;-65
2023/04/16 01:30:37;;;;;;;82.25;26.73;;;8.80;99.90;;;;;;5065016;28;20203;-65
2023/04/16 01:33:03;;;;;;;77.30;27.52;;;8.80;99.90;;;;;;5068584;28;20328;-65
2023/04/16 01:35:29;;;;;;;81.45;28.55;;;8.80;99.90;;;;;;5057792;28;20082;-65
2023/04/16 01:37:55;;;;;;;91.03;28.77;;;8.80;99.90;;;;;;5070931;28;20444;-66
2023/04/16 01:40:20;;;;;;;100.60;28.95;;;8.80;99.90;;;;;;5057394;28;20040;-65
2023/04/16 01:42:46;;;;;;;80.47;28.90;;;8.80;99.90;;;;;;5056602;28;20400;-65
2023/04/16 01:45:11;;;;;;;83.50;28.52;;;8.80;99.90;;;;;;5053126;28;20108;-65
2023/04/16 01:47:37;;;;;;;82.38;28.33;;;8.80;99.90;;;;;;5054289;28;20036;-65
2023/04/16 01:50:04;;;;;;;83.32;29.67;;;8.80;99.90;;;;;;5051199;28;20045;-65
2023/04/16 01:52:30;;;;;;;78.55;29.00;;;8.80;99.90;;;;;;5052534;28;20091;-65
2023/04/16 01:54:56;;;;;;;78.43;26.85;;;8.80;99.90;;;;;;5051837;28;20460;-65
2023/04/16 01:57:21;;;;;;;78.85;29.48;;;8.80;99.90;;;;;;5054641;28;20043;-65
2023/04/16 01:59:47;;;;;;;75.05;28.20;;;8.80;99.90;;;;;;5053782;28;20045;-65
2023/04/16 02:02:14;;;;;;;70.63;27.20;;;8.80;99.90;;;;;;5052035;28;20056;-65
2023/04/16 02:04:43;;;;;;;76.82;28.40;;;8.80;99.90;;;;;;5051006;28;20070;-65
2023/04/16 02:07:09;;;;;;;78.20;27.75;;;8.80;99.90;;;;;;5053177;28;20052;-66
2023/04/16 02:09:36;;;;;;;68.10;27.58;;;8.80;99.90;;;;;;5054832;28;20037;-65
2023/04/16 02:12:02;;;;;;;68.20;27.75;;;8.80;99.90;;;;;;5052030;28;20044;-65
2023/04/16 02:14:31;;;;;;;71.15;26.55;;;8.80;99.90;;;;;;5055801;28;20040;-65
2023/04/16 02:16:56;;;;;;;59.55;27.15;;;8.80;99.90;;;;;;5059769;28;20194;-65
2023/04/16 02:19:22;;;;;;;62.67;27.35;;;8.80;99.90;;;;;;5058147;28;20499;-65
2023/04/16 02:21:50;;;;;;;67.43;26.75;;;8.80;99.90;;;;;;5058454;28;20041;-65
2023/04/16 02:24:16;;;;;;;61.42;26.33;;;8.80;99.90;;;;;;5060188;28;20041;-65
2023/04/16 02:26:41;;;;;;;73.70;26.40;;;8.80;99.90;;;;;;5059144;28;20043;-65
2023/04/16 02:29:07;;;;;;;70.22;27.33;;;8.80;99.90;;;;;;5063855;28;20040;-65
2023/04/16 02:31:32;;;;;;;65.18;25.48;;;8.80;99.90;;;;;;5053227;28;20052;-65
2023/04/16 02:33:58;;;;;;;69.57;27.52;;;8.80;99.90;;;;;;5054446;28;20048;-65
2023/04/16 02:36:24;;;;;;;66.82;26.58;;;8.80;99.90;;;;;;5053920;28;20047;-65
2023/04/16 02:38:50;;;;;;;62.38;26.85;;;8.80;99.90;;;;;;5050494;28;20088;-65
2023/04/16 02:41:16;;;;;;;66.22;28.83;;;8.80;99.90;;;;;;5051063;28;20466;-65
2023/04/16 02:43:41;;;;;;;61.75;25.20;;;8.80;99.90;;;;;;5056003;28;20055;-65
2023/04/16 02:46:07;;;;;;;63.72;26.55;;;8.80;99.90;;;;;;5049872;28;20387;-65
2023/04/16 02:48:32;;;;;;;61.70;25.27;;;8.80;99.90;;;;;;5054877;28;20041;-66
2023/04/16 02:50:58;;;;;;;61.92;26.65;;;8.80;99.90;;;;;;5051609;28;20075;-65
2023/04/16 02:53:24;;;;;;;65.47;27.77;;;8.80;99.90;;;;;;5052486;28;20424;-65
2023/04/16 02:55:54;;;;;;;59.30;25.80;;;8.80;99.90;;;;;;5052379;28;20048;-65
2023/04/16 02:58:24;;;;;;;58.70;26.50;;;8.80;99.90;;;;;;5051913;28;20052;-65
2023/04/16 03:00:50;;;;;;;57.30;25.73;;;8.80;99.90;;;;;;5053026;28;20045;-65
2023/04/16 03:03:16;;;;;;;62.92;27.40;;;8.80;99.90;;;;;;5050784;28;20052;-65
2023/04/16 03:05:42;;;;;;;57.22;26.25;;;8.80;99.90;;;;;;5056827;28;20360;-65
2023/04/16 03:08:19;;;;;;;64.85;27.02;;;8.80;99.90;;;;;;5055452;28;20069;-68
2023/04/16 03:10:45;;;;;;;64.32;25.08;;;8.80;99.90;;;;;;5077925;28;20051;-67
2023/04/16 03:13:10;;;;;;;63.38;26.30;;;8.80;99.90;;;;;;5067289;28;20040;-67
2023/04/16 03:15:36;;;;;;;65.63;26.83;;;8.80;99.90;;;;;;5070531;28;20147;-66
2023/04/16 03:18:01;;;;;;;65.70;26.55;;;8.80;99.90;;;;;;5068017;28;20067;-66
2023/04/16 03:20:27;;;;;;;70.82;26.95;;;8.80;99.90;;;;;;5054987;28;20052;-65
2023/04/16 03:22:53;;;;;;;60.08;25.95;;;8.80;99.90;;;;;;5066385;28;20028;-65
2023/04/16 03:25:18;;;;;;;59.40;26.42;;;8.80;99.90;;;;;;5069260;28;20171;-66
2023/04/16 03:27:44;;;;;;;59.85;25.90;;;8.80;99.90;;;;;;5059879;28;20047;-65
2023/04/16 03:30:11;;;;;;;58.13;25.00;;;8.80;99.90;;;;;;5062913;28;20040;-66
2023/04/16 03:32:37;;;;;;;61.50;26.65;;;8.80;99.90;;;;;;5062539;28;20063;-66
2023/04/16 03:35:03;;;;;;;57.80;25.00;;;8.80;99.90;;;;;;5067259;28;20395;-66
2023/04/16 03:37:29;;;;;;;64.28;25.02;;;8.80;99.90;;;;;;5066002;28;20040;-66
2023/04/16 03:39:55;;;;;;;58.53;25.67;;;8.80;99.90;;;;;;5066477;28;20063;-66
2023/04/16 03:42:20;;;;;;;65.22;26.63;;;8.80;99.90;;;;;;5059289;28;20047;-65
2023/04/16 03:44:46;;;;;;;64.57;26.15;;;8.80;99.90;;;;;;5057925;28;20096;-65
2023/04/16 03:47:11;;;;;;;57.80;24.98;;;8.80;99.90;;;;;;5054978;28;20087;-65
2023/04/16 03:49:37;;;;;;;54.13;24.17;;;8.80;99.90;;;;;;5056616;28;20122;-65
2023/04/16 03:52:02;;;;;;;50.72;23.33;;;8.70;99.90;;;;;;5054176;28;20041;-65
2023/04/16 03:54:28;;;;;;;54.15;25.13;;;8.80;99.90;;;;;;5055669;28;20135;-65
2023/04/16 03:56:54;;;;;;;58.88;24.58;;;8.70;99.90;;;;;;5052385;28;20490;-66
2023/04/16 03:59:19;;;;;;;52.45;23.42;;;8.80;99.90;;;;;;5053594;28;20041;-66
2023/04/16 04:01:46;;;;;;;57.15;25.05;;;8.70;99.90;;;;;;5059455;28;20123;-65
2023/04/16 04:04:11;;;;;;;54.38;24.50;;;8.80;99.90;;;;;;5054638;28;20463;-66
2023/04/16 04:06:37;;;;;;;59.80;24.95;;;8.80;99.90;;;;;;5053318;28;20135;-65
2023/04/16 04:09:02;;;;;;;55.78;25.13;;;8.80;99.90;;;;;;5051899;28;20041;-65
2023/04/16 04:11:28;;;;;;;65.10;26.48;;;8.80;99.90;;;;;;5055501;28;20376;-66
2023/04/16 04:13:54;;;;;;;63.65;26.13;;;8.80;99.90;;;;;;5055907;28;20052;-65
2023/04/16 04:16:19;;;;;;;62.35;27.05;;;8.80;99.90;;;;;;5058181;28;20067;-66
2023/04/16 04:18:45;;;;;;;60.95;26.55;;;8.80;99.90;;;;;;5054542;28;20079;-65
2023/04/16 04:21:10;;;;;;;55.63;26.83;;;8.80;99.90;;;;;;5052335;28;20131;-65
2023/04/16 04:23:36;;;;;;;55.38;26.05;;;8.80;99.90;;;;;;5055005;28;20052;-65
2023/04/16 04:26:02;;;;;;;57.42;26.25;;;8.80;99.90;;;;;;5052326;28;20415;-65
2023/04/16 04:28:32;;;;;;;53.15;25.23;;;8.80;99.90;;;;;;5058319;28;20059;-65
2023/04/16 04:30:58;;;;;;;53.53;26.17;;;8.80;99.90;;;;;;5054723;28;20048;-65
2023/04/16 04:33:27;;;;;;;58.42;26.50;;;8.80;99.90;;;;;;5054564;28;20037;-65
2023/04/16 04:35:53;;;;;;;62.35;27.20;;;8.80;99.90;;;;;;5054524;28;20084;-65
2023/04/16 04:38:20;;;;;;;59.92;26.30;;;8.90;99.90;;;;;;5055937;28;20110;-66
2023/04/16 04:40:47;;;;;;;59.08;26.10;;;8.80;99.90;;;;;;5055373;28;20041;-65
2023/04/16 04:43:13;;;;;;;60.28;26.85;;;8.90;99.90;;;;;;5057157;28;20048;-64
2023/04/16 04:45:39;;;;;;;66.25;28.52;;;8.80;99.90;;;;;;5053574;28;20071;-65
2023/04/16 04:48:05;;;;;;;60.28;28.50;;;8.80;99.90;;;;;;5058708;28;20047;-65
2023/04/16 04:50:30;;;;;;;54.17;27.05;;;8.80;99.90;;;;;;5049592;28;20465;-65
2023/04/16 04:52:56;;;;;;;56.17;28.35;;;8.80;99.90;;;;;;5050882;28;20048;-66
2023/04/16 04:55:22;;;;;;;61.50;29.50;;;8.70;99.90;;;;;;5050507;28;20059;-65
2023/04/16 04:57:48;;;;;;;62.70;27.27;;;8.70;99.90;;;;;;5053795;28;20142;-65
2023/04/16 05:00:14;;;;;;;58.92;27.67;;;8.70;99.90;;;;;;5050594;28;20040;-65
2023/04/16 05:02:40;;;;;;;65.80;29.20;;;8.70;99.90;;;;;;5053067;28;20131;-65
2023/04/16 05:05:05;;;;;;;62.53;28.58;;;8.70;99.90;;;;;;5058589;28;20044;-65
2023/04/16 05:07:31;;;;;;;56.85;27.75;;;8.70;99.90;;;;;;5067390;28;20090;-65
2023/04/16 05:09:57;;;;;;;60.70;28.25;;;8.80;99.90;;;;;;5069607;28;20040;-65
2023/04/16 05:12:22;;;;;;;53.13;26.77;;;8.70;99.90;;;;;;5060836;28;20455;-65
2023/04/16 05:14:48;;;;;;;54.80;27.10;;;8.80;99.90;;;;;;5062792;28;20060;-65
2023/04/16 05:17:14;;;;;;;62.90;29.63;;;8.80;99.90;;;;;;5057550;28;20068;-65
2023/04/16 05:19:39;;;;;;;59.80;29.50;;;8.70;99.90;;;;;;5058309;28;20085;-65
2023/04/16 05:22:05;;;;;;;65.25;30.25;;;8.80;99.90;;;;;;5067955;28;20449;-65
2023/04/16 05:24:30;;;;;;;65.43;29.33;;;8.80;99.90;;;;;;5053848;28;20082;-65
2023/04/16 05:26:56;;;;;;;64.65;30.05;;;8.80;99.90;;;;;;5061338;28;20097;-65
2023/04/16 05:29:22;;;;;;;60.40;30.52;;;8.80;99.90;;;;;;5065264;28;20059;-64
2023/04/16 05:31:48;;;;;;;62.70;29.20;;;8.80;99.90;;;;;;5060267;28;20083;-65
2023/04/16 05:34:14;;;;;;;59.67;29.90;;;8.80;99.90;;;;;;5055758;28;20036;-64
2023/04/16 05:36:39;;;;;;;58.50;29.35;;;8.80;99.90;;;;;;5053733;28;20072;-65
2023/04/16 05:39:06;;;;;;;58.80;29.02;;;8.80;99.90;;;;;;5061061;28;20068;-65
2023/04/16 05:41:32;;;;;;;59.45;29.58;;;8.80;99.90;;;;;;5057177;28;20080;-64
2023/04/16 05:43:58;;;;;;;60.70;29.33;;;8.80;99.90;;;;;;5054460;28;20051;-65
2023/04/16 05:46:23;;;;;;;61.75;29.98;;;8.80;99.90;;;;;;5062962;28;20391;-64
2023/04/16 05:48:49;;;;;;;59.78;29.92;;;8.80;99.90;;;;;;5065735;28;20075;-64
2023/04/16 05:51:15;;;;;;;61.05;29.25;;;8.80;99.90;;;;;;5065838;28;20035;-64
2023/04/16 05:53:40;;;;;;;54.28;28.25;;;8.90;99.90;;;;;;5068739;28;20167;-64
2023/04/16 05:56:06;;;;;;;63.17;29.45;;;8.90;99.90;;;;;;5064515;28;20129;-64
2023/04/16 05:58:32;;;;;;;64.63;29.73;;;8.90;99.90;;;;;;5063460;28;20040;-65
2023/04/16 06:00:58;;;;;;;67.57;30.95;;;8.90;99.90;;;;;;5057241;28;20067;-65
2023/04/16 06:03:24;;;;;;;67.78;30.08;;;9.00;99.90;;;;;;5052879;28;20121;-65
2023/04/16 06:05:49;;;;;;;70.20;31.42;;;8.90;99.90;;;;;;5062547;28;20124;-65
2023/04/16 06:08:15;;;;;;;63.42;29.60;;;9.00;99.90;;;;;;5066004;28;20045;-65
2023/04/16 06:10:41;;;;;;;68.13;30.17;;;9.00;99.90;;;;;;5066103;28;20345;-66
2023/04/16 06:13:06;;;;;;;55.95;29.40;;;9.10;99.90;;;;;;5066299;28;20048;-66
2023/04/16 06:15:32;;;;;;;61.45;28.98;;;9.10;99.90;;;;;;5063666;28;20036;-67
2023/04/16 06:17:57;;;;;;;66.00;29.27;;;9.10;99.90;;;;;;5059626;28;20037;-66
2023/04/16 06:20:23;;;;;;;62.20;29.20;;;9.20;99.90;;;;;;5055957;28;20037;-66
2023/04/16 06:22:49;;;;;;;62.00;29.67;;;9.20;99.90;;;;;;5075610;28;20372;-66
2023/04/16 06:25:15;;;;;;;56.40;28.58;;;9.20;99.90;;;;;;5062559;28;20510;-67
2023/04/16 06:27:40;;;;;;;62.47;29.92;;;9.30;99.90;;;;;;5065089;28;20051;-66
2023/04/16 06:30:11;;;;;;;60.70;28.58;;;9.40;99.90;;;;;;5066636;28;20040;-66
2023/04/16 06:32:37;;;;;;;53.80;27.13;;;9.40;99.90;;;;;;5062407;28;20114;-66
2023/04/16 06:35:04;;;;;;;61.30;28.38;;;9.50;99.90;;;;;;5062639;28;20089;-65
2023/04/16 06:37:30;;;;;;;62.10;28.17;;;9.40;99.90;;;;;;5068317;28;20036;-66
2023/04/16 06:39:55;;;;;;;55.30;27.40;;;9.50;99.90;;;;;;5067498;28;20043;-65
2023/04/16 06:42:21;;;;;;;51.70;26.45;;;9.50;99.90;;;;;;5051069;28;20420;-66
2023/04/16 06:44:46;;;;;;;57.75;27.63;;;9.60;99.90;;;;;;5060899;28;20048;-66
2023/04/16 06:47:12;;;;;;;48.13;24.67;;;9.70;99.90;;;;;;5054654;28;20033;-66
2023/04/16 06:49:38;;;;;;;49.50;25.52;;;9.70;99.90;;;;;;5052411;28;20410;-66
2023/04/16 06:52:04;;;;;;;47.17;24.17;;;9.70;99.90;;;;;;5067027;28;20064;-65
2023/04/16 06:54:30;;;;;;;48.85;24.77;;;9.70;99.90;;;;;;5058682;28;20067;-66
2023/04/16 06:56:56;;;;;;;46.90;22.45;;;9.80;99.90;;;;;;5052565;28;20037;-66
2023/04/16 06:59:21;;;;;;;46.33;24.25;;;9.80;99.90;;;;;;5049737;28;20045;-66
2023/04/16 07:01:47;;;;;;;46.65;23.05;;;9.80;99.90;;;;;;5069527;28;20055;-66
2023/04/16 07:04:12;;;;;;;44.80;22.50;;;9.90;99.90;;;;;;5066075;28;20141;-66
2023/04/16 07:06:38;;;;;;;45.50;22.80;;;9.90;99.90;;;;;;5065851;28;20055;-66
2023/04/16 07:09:04;;;;;;;45.65;23.45;;;9.90;99.90;;;;;;5067041;28;20037;-66
2023/04/16 07:11:30;;;;;;;46.38;23.23;;;9.90;99.90;;;;;;5068308;28;20580;-66
2023/04/16 07:13:56;;;;;;;45.38;23.40;;;9.90;99.90;;;;;;5067388;28;20041;-66
2023/04/16 07:16:22;;;;;;;46.40;22.45;;;9.90;99.90;;;;;;5063730;28;20178;-66
2023/04/16 07:18:48;;;;;;;43.00;22.10;;;10.00;99.90;;;;;;5063014;28;20282;-66
2023/04/16 07:21:13;;;;;;;44.90;22.17;;;10.10;99.90;;;;;;5068340;28;20037;-66
2023/04/16 07:23:39;;;;;;;41.38;21.58;;;10.10;99.90;;;;;;5071885;28;20044;-67
2023/04/16 07:26:05;;;;;;;40.53;22.15;;;10.20;99.90;;;;;;5066963;28;20074;-67
2023/04/16 07:28:30;;;;;;;39.28;20.67;;;10.20;99.90;;;;;;5067730;28;20146;-68
2023/04/16 07:30:56;;;;;;;40.08;21.50;;;10.20;99.90;;;;;;5070505;28;20044;-68
2023/04/16 07:33:21;;;;;;;47.35;21.50;;;10.30;99.90;;;;;;5071278;28;20041;-68
2023/04/16 07:35:47;;;;;;;43.13;21.83;;;10.30;99.90;;;;;;5064843;28;20110;-67
2023/04/16 07:38:13;;;;;;;37.97;21.27;;;10.30;99.90;;;;;;5066352;28;20036;-65
2023/04/16 07:40:39;;;;;;;40.35;20.17;;;10.50;99.90;;;;;;5070028;28;20055;-65
2023/04/16 07:43:05;;;;;;;42.72;20.65;;;10.60;99.90;;;;;;5064095;28;20419;-66
2023/04/16 07:45:31;;;;;;;37.33;20.80;;;10.70;99.90;;;;;;5069825;28;20051;-66
2023/04/16 07:47:56;;;;;;;36.72;19.70;;;10.80;99.90;;;;;;5069650;28;20479;-67
2023/04/16 07:50:22;;;;;;;36.58;19.08;;;10.90;99.90;;;;;;5056452;28;20041;-67
2023/04/16 07:52:47;;;;;;;42.13;20.45;;;11.00;99.90;;;;;;5062728;28;20095;-67
2023/04/16 07:55:13;;;;;;;32.30;18.33;;;11.00;99.90;;;;;;5070508;28;20495;-67
2023/04/16 07:57:40;;;;;;;36.67;18.55;;;11.20;99.90;;;;;;5067834;28;20068;-68
2023/04/16 08:00:06;;;;;;;35.30;18.90;;;11.40;99.90;;;;;;5069339;28;20123;-66
2023/04/16 08:02:32;;;;;;;36.05;18.65;;;11.60;99.90;;;;;;5064224;28;20033;-66
2023/04/16 08:04:58;;;;;;;32.63;17.83;;;11.70;99.90;;;;;;5073047;28;20412;-66
2023/04/16 08:07:24;;;;;;;32.67;17.98;;;11.70;99.90;;;;;;5069376;28;20048;-66
2023/04/16 08:09:53;;;;;;;30.27;16.52;;;11.80;99.90;;;;;;5072602;28;20068;-65
2023/04/16 08:12:19;;;;;;;42.58;19.08;;;11.90;99.90;;;;;;5073018;28;20106;-66
2023/04/16 08:14:45;;;;;;;34.05;17.95;;;11.90;99.90;;;;;;5070317;28;20052;-66
2023/04/16 08:17:12;;;;;;;32.00;18.02;;;12.10;99.90;;;;;;5081774;28;20037;-66
2023/04/16 08:19:38;;;;;;;33.55;18.30;;;12.20;99.90;;;;;;5064796;28;20239;-67
2023/04/16 08:22:03;;;;;;;31.38;18.00;;;12.40;99.90;;;;;;5062682;28;20108;-67
2023/04/16 08:24:29;;;;;;;29.88;16.77;;;12.60;99.90;;;;;;5068820;28;20037;-65
2023/04/16 08:26:54;;;;;;;29.27;16.92;;;12.70;99.90;;;;;;5062572;28;20040;-65
2023/04/16 08:29:20;;;;;;;33.60;18.10;;;12.70;99.90;;;;;;5066100;28;20052;-65
2023/04/16 08:31:46;;;;;;;32.58;18.02;;;12.50;99.90;;;;;;5060790;28;20040;-65
2023/04/16 08:34:12;;;;;;;36.22;17.90;;;12.50;99.90;;;;;;5067716;28;20423;-65
2023/04/16 08:36:39;;;;;;;30.23;17.40;;;12.50;99.90;;;;;;5068423;28;20123;-65
2023/04/16 08:39:05;;;;;;;29.80;16.40;;;12.70;99.90;;;;;;5068245;28;20059;-65
2023/04/16 08:41:33;;;;;;;32.95;17.08;;;13.00;99.90;;;;;;5066360;28;20055;-65
2023/04/16 08:44:03;;;;;;;34.03;18.33;;;13.00;99.90;;;;;;5069938;28;20075;-65
2023/04/16 08:46:30;;;;;;;32.88;17.25;;;13.00;99.90;;;;;;5065365;28;20044;-66
2023/04/16 08:48:59;;;;;;;33.08;17.50;;;13.10;99.90;;;;;;5059741;28;20045;-65
2023/04/16 08:51:28;;;;;;;31.08;16.67;;;13.10;99.90;;;;;;5066677;28;20170;-64
2023/04/16 08:54:01;;;;;;;31.85;17.23;;;13.10;99.90;;;;;;5062661;28;20451;-65
2023/04/16 08:56:27;;;;;;;28.20;16.75;;;13.00;99.90;;;;;;5062556;28;20355;-64
2023/04/16 08:58:54;;;;;;;26.25;16.13;;;13.20;99.90;;;;;;5062141;28;20068;-65
2023/04/16 09:01:21;;;;;;;32.40;17.45;;;13.60;99.90;;;;;;5063899;28;20100;-65
2023/04/16 09:03:47;;;;;;;32.90;17.42;;;13.60;99.90;;;;;;5063019;28;20040;-65
2023/04/16 09:06:14;;;;;;;34.05;17.40;;;13.50;99.90;;;;;;5064540;28;20040;-66
2023/04/16 09:08:40;;;;;;;27.75;16.23;;;13.60;99.90;;;;;;5059858;28;20044;-67
2023/04/16 09:11:06;;;;;;;34.47;16.73;;;13.60;99.90;;;;;;5059053;28;20063;-67
2023/04/16 09:13:32;;;;;;;30.67;16.92;;;13.60;99.90;;;;;;5064204;28;20186;-66
2023/04/16 09:15:58;;;;;;;27.80;15.93;;;13.70;99.90;;;;;;5065921;28;20213;-67
2023/04/16 09:18:24;;;;;;;29.30;16.55;;;13.80;99.90;;;;;;5057900;28;20053;-66
2023/04/16 09:20:51;;;;;;;28.95;16.30;;;14.00;99.90;;;;;;5063214;28;20044;-66
2023/04/16 09:23:17;;;;;;;31.55;16.92;;;14.10;99.90;;;;;;5067479;28;20111;-65
2023/04/16 09:25:43;;;;;;;34.63;16.67;;;14.40;99.90;;;;;;5063688;28;20040;-66
2023/04/16 09:28:09;;;;;;;31.02;16.77;;;14.60;99.90;;;;;;5065433;28;20044;-66
2023/04/16 09:30:36;;;;;;;25.60;16.08;;;14.70;99.90;;;;;;5067210;28;20258;-66
2023/04/16 09:33:15;;;;;;;31.65;16.70;;;14.70;99.90;;;;;;5065709;28;20187;-65
2023/04/16 09:35:48;;;;;;;30.45;16.70;;;14.80;99.90;;;;;;5060598;28;20060;-65
2023/04/16 09:38:15;;;;;;;28.88;15.63;;;14.70;99.90;;;;;;5058447;28;20037;-66
2023/04/16 09:40:41;;;;;;;27.83;15.68;;;14.70;99.90;;;;;;5063165;28;20068;-66
2023/04/16 09:43:11;;;;;;;28.02;15.75;;;14.70;99.90;;;;;;5069925;28;20076;-65
2023/04/16 09:45:50;;;;;;;30.70;15.82;;;14.60;99.90;;;;;;5060778;28;20047;-67
2023/04/16 09:48:30;;;;;;;27.42;15.07;;;14.80;99.90;;;;;;5063951;28;20040;-67
2023/04/16 09:50:57;;;;;;;25.25;15.52;;;14.90;99.90;;;;;;5063896;28;20068;-67
2023/04/16 09:53:25;;;;;;;24.92;15.43;;;15.00;99.90;;;;;;5063354;28;20086;-67
2023/04/16 09:55:51;;;;;;;27.40;14.75;;;15.00;99.90;;;;;;5068905;28;20072;-68
2023/04/16 09:58:20;;;;;;;27.27;15.23;;;15.10;99.90;;;;;;5066107;28;20125;-66
2023/04/16 10:00:45;;;;;;;29.20;15.57;;;15.20;99.90;;;;;;5061406;28;20060;-67
2023/04/16 10:03:11;;;;;;;27.42;15.20;;;15.30;99.90;;;;;;5058822;28;20077;-69
2023/04/16 10:05:36;;;;;;;24.55;14.20;;;15.40;99.90;;;;;;5066283;28;20094;-68
2023/04/16 10:08:09;;;;;;;27.65;15.13;;;15.50;99.90;;;;;;5065287;28;20090;-66
2023/04/16 10:10:35;;;;;;;24.20;14.18;;;15.50;99.90;;;;;;5057858;28;20040;-67
2023/04/16 10:13:01;;;;;;;22.30;14.20;;;15.60;99.90;;;;;;5067992;28;20086;-66
2023/04/16 10:15:27;;;;;;;24.38;14.65;;;15.90;99.90;;;;;;5063347;28;20041;-67
2023/04/16 10:17:53;;;;;;;23.90;13.80;;;16.10;99.90;;;;;;5065869;28;20255;-65
2023/04/16 10:20:18;;;;;;;24.70;13.77;;;16.20;99.90;;;;;;5055832;28;20395;-65
2023/04/16 10:22:44;;;;;;;25.73;14.60;;;16.30;99.90;;;;;;5061388;28;20037;-65
2023/04/16 10:25:11;;;;;;;30.80;15.65;;;16.10;99.90;;;;;;5050319;28;20128;-66
2023/04/16 10:27:38;;;;;;;24.83;15.13;;;16.10;99.90;;;;;;5058877;28;20037;-66
2023/04/16 10:30:06;;;;;;;30.65;14.88;;;16.00;99.90;;;;;;5068001;28;20055;-66
2023/04/16 10:32:33;;;;;;;27.85;14.52;;;16.10;99.90;;;;;;5067606;28;20051;-66
2023/04/16 10:34:59;;;;;;;30.00;15.38;;;16.10;99.90;;;;;;5068507;28;20061;-67
2023/04/16 10:37:31;;;;;;;26.50;14.73;;;16.00;99.90;;;;;;5066990;28;20115;-66
2023/04/16 10:39:58;;;;;;;24.08;14.07;;;16.00;99.90;;;;;;5064546;28;20045;-67
2023/04/16 10:42:24;;;;;;;26.52;14.60;;;15.90;99.90;;;;;;5065470;28;20090;-67
2023/04/16 10:44:50;;;;;;;24.88;13.77;;;15.90;99.90;;;;;;5064097;28;20158;-68
2023/04/16 10:47:16;;;;;;;27.20;13.55;;;16.00;99.90;;;;;;5059897;28;20083;-66
2023/04/16 10:49:42;;;;;;;23.00;13.90;;;15.90;99.90;;;;;;5063581;28;20199;-66
2023/04/16 10:52:18;;;;;;;24.17;13.40;;;16.10;99.90;;;;;;5055322;28;20396;-66
2023/04/16 10:54:45;;;;;;;27.77;13.95;;;16.10;99.90;;;;;;5072819;28;20385;-66
2023/04/16 10:57:18;;;;;;;25.42;13.65;;;16.00;99.90;;;;;;5068334;28;20455;-67
2023/04/16 10:59:45;;;;;;;27.52;13.63;;;16.00;99.90;;;;;;5067887;28;20174;-66
2023/04/16 11:02:16;;;;;;;24.85;13.48;;;16.00;99.90;;;;;;5072303;28;20051;-67
2023/04/16 11:04:43;;;;;;;22.15;12.95;;;16.20;99.90;;;;;;5073042;28;20044;-67
2023/04/16 11:07:15;;;;;;;24.63;13.60;;;16.30;99.90;;;;;;5070201;28;20440;-67
2023/04/16 11:10:11;;;;;;;24.20;13.77;;;16.50;99.90;;;;;;5066608;28;20036;-67
2023/04/16 11:12:43;;;;;;;24.02;14.00;;;16.50;99.90;;;;;;5056895;28;20472;-67
2023/04/16 11:15:11;;;;;;;26.40;13.80;;;16.60;99.90;;;;;;5065326;28;20060;-67
2023/04/16 11:17:39;;;;;;;28.30;14.48;;;16.70;99.90;;;;;;5063370;28;20051;-67
2023/04/16 11:20:09;;;;;;;25.42;13.68;;;16.50;99.90;;;;;;5068898;28;20040;-65
2023/04/16 11:22:38;;;;;;;28.25;13.93;;;16.40;99.90;;;;;;5073226;28;20047;-67
2023/04/16 11:25:04;;;;;;;26.95;13.25;;;16.20;99.90;;;;;;5069601;28;20045;-66
2023/04/16 11:27:30;;;;;;;28.70;14.32;;;16.30;99.90;;;;;;5064506;28;20052;-66
2023/04/16 11:29:57;;;;;;;27.13;13.23;;;16.30;99.90;;;;;;5068146;28;20132;-65
2023/04/16 11:32:23;;;;;;;24.92;13.75;;;16.50;99.90;;;;;;5064911;28;20113;-66
2023/04/16 11:34:49;;;;;;;26.52;14.07;;;16.50;99.90;;;;;;5058981;28;20417;-66
2023/04/16 11:37:17;;;;;;;24.63;13.63;;;16.40;99.90;;;;;;5064185;28;20096;-66
2023/04/16 11:39:52;;;;;;;24.23;13.85;;;16.30;99.90;;;;;;5073039;28;20044;-66
2023/04/16 11:42:20;;;;;;;26.23;13.30;;;16.30;99.90;;;;;;5071420;28;20566;-66
2023/04/16 11:44:45;;;;;;;25.27;13.85;;;16.20;99.90;;;;;;5072556;28;20051;-67
2023/04/16 11:47:12;;;;;;;26.10;13.57;;;16.10;99.90;;;;;;5066369;28;20037;-67
2023/04/16 11:49:38;;;;;;;26.85;14.13;;;16.10;99.90;;;;;;5069494;28;20056;-66
2023/04/16 11:52:03;;;;;;;24.77;13.63;;;16.10;99.90;;;;;;5065328;28;20092;-66
2023/04/16 11:54:33;;;;;;;25.20;13.88;;;16.10;99.90;;;;;;5070149;28;20113;-67
2023/04/16 11:56:59;;;;;;;25.20;13.95;;;16.20;99.90;;;;;;5062330;28;20048;-66
2023/04/16 11:59:25;;;;;;;22.70;12.95;;;16.40;99.90;;;;;;5052367;28;20099;-67
2023/04/16 12:01:56;;;;;;;25.17;14.18;;;16.60;99.90;;;;;;5059195;28;20064;-66
2023/04/16 12:04:23;;;;;;;26.40;14.02;;;16.50;99.90;;;;;;5057023;28;20503;-67
2023/04/16 12:07:11;;;;;;;27.77;13.88;;;16.50;99.90;;;;;;5070992;28;20037;-67
2023/04/16 12:09:39;;;;;;;27.02;14.30;;;16.40;99.90;;;;;;5067882;28;20059;-66
2023/04/16 12:12:05;;;;;;;25.55;14.15;;;16.20;99.90;;;;;;5069495;28;20040;-64
2023/04/16 12:14:31;;;;;;;26.50;14.73;;;16.00;99.90;;;;;;5066939;28;20045;-64
2023/04/16 12:17:17;;;;;;;27.73;15.38;;;15.90;99.90;;;;;;5062549;28;20487;-64
2023/04/16 12:19:55;;;;;;;24.50;15.43;;;15.90;99.90;;;;;;5063804;28;20059;-64
2023/04/16 12:22:35;;;;;;;28.17;15.15;;;15.80;99.90;;;;;;5068537;28;20046;-64
2023/04/16 12:25:05;;;;;;;29.67;14.30;;;15.60;99.90;;;;;;5078716;28;20052;-64
2023/04/16 12:27:45;;;;;;;26.50;14.07;;;15.50;99.90;;;;;;5082553;28;20072;-65
2023/04/16 12:30:11;;;;;;;22.65;13.07;;;15.70;99.90;;;;;;5060204;28;20044;-65